sensor_id;sensor_type;location;lat;lon;timestamp;P1;durP1;ratioP1;P2;durP2;ratioP2
23400;SDS011;11873;49.300;8.920;2022-10-16T00:03:07;1.10;;;1.10;;
23400;SDS011;11873;49.300;8.920;2022-10-16T00:08:08;1.07;;;1.07;;
23400;SDS011;11873;49.300;8.920;2022-10-16T00:13:08;1.40;;;1.30;;
23400;SDS011;11873;49.300;8.920;2022-10-16T00:18:08;1.07;;;1.07;;
23400;SDS011;11873;49.300;8.920;2022-10-16T00:23:08;1.30;;;1.13;;
23400;SDS011;11873;49.300;8.920;2022-10-16T00:28:08;1.33;;;1.23;;
23400;SDS011;11873;49.300;8.920;2022-10-16T00:33:09;1.10;;;1.10;;
23400;SDS011;11873;49.300;8.920;2022-10-16T00:38:09;3.03;;;1.30;;
23400;SDS011;11873;49.300;8.920;2022-10-16T00:48:28;2.57;;;0.90;;
23400;SDS011;11873;49.300;8.920;2022-10-16T00:53:28;4.67;;;1.30;;
23400;SDS011;11873;49.300;8.920;2022-10-16T00:58:29;2.30;;;1.37;;
23400;SDS011;11873;49.300;8.920;2022-10-16T01:03:31;2.83;;;1.20;;
23400;SDS011;11873;49.300;8.920;2022-10-16T01:08:36;1.60;;;0.80;;
23400;SDS011;11873;49.300;8.920;2022-10-16T01:13:41;1.20;;;1.10;;
23400;SDS011;11873;49.300;8.920;2022-10-16T01:18:46;1.73;;;1.10;;
23400;SDS011;11873;49.300;8.920;2022-10-16T01:28:56;1.50;;;1.40;;
23400;SDS011;11873;49.300;8.920;2022-10-16T01:33:59;1.40;;;1.27;;
23400;SDS011;11873;49.300;8.920;2022-10-16T01:39:01;1.97;;;1.80;;
23400;SDS011;11873;49.300;8.920;2022-10-16T01:44:02;1.20;;;1.10;;
23400;SDS011;11873;49.300;8.920;2022-10-16T01:49:04;1.47;;;1.20;;
23400;SDS011;11873;49.300;8.920;2022-10-16T01:54:06;3.20;;;1.57;;
23400;SDS011;11873;49.300;8.920;2022-10-16T01:59:14;1.30;;;1.20;;
23400;SDS011;11873;49.300;8.920;2022-10-16T02:04:17;1.37;;;1.27;;
23400;SDS011;11873;49.300;8.920;2022-10-16T02:09:18;1.20;;;1.10;;
23400;SDS011;11873;49.300;8.920;2022-10-16T02:14:19;1.30;;;1.10;;
23400;SDS011;11873;49.300;8.920;2022-10-16T02:19:19;1.07;;;1.00;;
23400;SDS011;11873;49.300;8.920;2022-10-16T02:29:29;5.53;;;1.17;;
23400;SDS011;11873;49.300;8.920;2022-10-16T02:34:30;1.57;;;1.20;;
23400;SDS011;11873;49.300;8.920;2022-10-16T02:39:32;1.37;;;1.23;;
23400;SDS011;11873;49.300;8.920;2022-10-16T02:44:32;1.20;;;1.13;;
23400;SDS011;11873;49.300;8.920;2022-10-16T02:49:33;1.20;;;1.10;;
23400;SDS011;11873;49.300;8.920;2022-10-16T02:54:33;1.17;;;1.07;;
23400;SDS011;11873;49.300;8.920;2022-10-16T02:59:33;1.13;;;1.10;;
23400;SDS011;11873;49.300;8.920;2022-10-16T03:04:33;4.10;;;1.20;;
23400;SDS011;11873;49.300;8.920;2022-10-16T03:09:33;0.83;;;0.83;;
23400;SDS011;11873;49.300;8.920;2022-10-16T03:14:33;1.93;;;1.30;;
23400;SDS011;11873;49.300;8.920;2022-10-16T03:19:34;0.90;;;0.90;;
23400;SDS011;11873;49.300;8.920;2022-10-16T03:24:34;3.57;;;1.27;;
23400;SDS011;11873;49.300;8.920;2022-10-16T03:29:34;3.17;;;1.07;;
23400;SDS011;11873;49.300;8.920;2022-10-16T03:34:34;1.47;;;1.37;;
23400;SDS011;11873;49.300;8.920;2022-10-16T03:39:34;1.57;;;1.20;;
23400;SDS011;11873;49.300;8.920;2022-10-16T03:44:35;1.17;;;1.17;;
23400;SDS011;11873;49.300;8.920;2022-10-16T03:49:35;1.43;;;1.10;;
23400;SDS011;11873;49.300;8.920;2022-10-16T03:54:35;0.87;;;0.87;;
23400;SDS011;11873;49.300;8.920;2022-10-16T03:59:35;1.50;;;1.10;;
23400;SDS011;11873;49.300;8.920;2022-10-16T04:04:35;1.40;;;1.10;;
23400;SDS011;11873;49.300;8.920;2022-10-16T04:09:36;0.90;;;0.90;;
23400;SDS011;11873;49.300;8.920;2022-10-16T04:14:36;1.23;;;1.13;;
23400;SDS011;11873;49.300;8.920;2022-10-16T04:19:36;3.97;;;1.00;;
23400;SDS011;11873;49.300;8.920;2022-10-16T04:24:36;1.30;;;1.20;;
23400;SDS011;11873;49.300;8.920;2022-10-16T04:29:36;1.53;;;1.10;;
23400;SDS011;11873;49.300;8.920;2022-10-16T04:34:38;4.57;;;1.23;;
23400;SDS011;11873;49.300;8.920;2022-10-16T04:39:39;4.10;;;1.10;;
23400;SDS011;11873;49.300;8.920;2022-10-16T04:44:39;1.83;;;1.20;;
23400;SDS011;11873;49.300;8.920;2022-10-16T04:49:39;2.27;;;1.80;;
23400;SDS011;11873;49.300;8.920;2022-10-16T04:54:39;1.40;;;1.30;;
23400;SDS011;11873;49.300;8.920;2022-10-16T04:59:40;3.13;;;1.40;;
23400;SDS011;11873;49.300;8.920;2022-10-16T05:04:40;1.30;;;1.20;;
23400;SDS011;11873;49.300;8.920;2022-10-16T05:09:40;3.40;;;1.20;;
23400;SDS011;11873;49.300;8.920;2022-10-16T05:14:40;1.30;;;1.13;;
23400;SDS011;11873;49.300;8.920;2022-10-16T05:19:40;1.00;;;1.00;;
23400;SDS011;11873;49.300;8.920;2022-10-16T05:24:41;2.60;;;1.20;;
23400;SDS011;11873;49.300;8.920;2022-10-16T05:29:41;5.93;;;1.40;;
23400;SDS011;11873;49.300;8.920;2022-10-16T05:34:41;1.47;;;1.07;;
23400;SDS011;11873;49.300;8.920;2022-10-16T05:39:41;1.60;;;1.50;;
23400;SDS011;11873;49.300;8.920;2022-10-16T05:44:41;2.20;;;1.23;;
23400;SDS011;11873;49.300;8.920;2022-10-16T05:49:42;1.10;;;1.10;;
23400;SDS011;11873;49.300;8.920;2022-10-16T05:54:42;1.40;;;1.03;;
23400;SDS011;11873;49.300;8.920;2022-10-16T05:59:42;3.23;;;1.13;;
23400;SDS011;11873;49.300;8.920;2022-10-16T06:04:42;3.13;;;1.20;;
23400;SDS011;11873;49.300;8.920;2022-10-16T06:09:42;2.17;;;1.20;;
23400;SDS011;11873;49.300;8.920;2022-10-16T06:14:43;2.83;;;1.02;;
23400;SDS011;11873;49.300;8.920;2022-10-16T06:19:43;1.90;;;1.80;;
23400;SDS011;11873;49.300;8.920;2022-10-16T06:24:43;1.80;;;1.70;;
23400;SDS011;11873;49.300;8.920;2022-10-16T06:29:43;3.57;;;1.67;;
23400;SDS011;11873;49.300;8.920;2022-10-16T06:34:43;4.17;;;2.20;;
23400;SDS011;11873;49.300;8.920;2022-10-16T06:39:44;1.77;;;1.67;;
23400;SDS011;11873;49.300;8.920;2022-10-16T06:44:44;2.10;;;1.90;;
23400;SDS011;11873;49.300;8.920;2022-10-16T06:49:44;1.70;;;1.60;;
23400;SDS011;11873;49.300;8.920;2022-10-16T06:54:45;1.40;;;1.30;;
23400;SDS011;11873;49.300;8.920;2022-10-16T06:59:45;3.73;;;1.60;;
23400;SDS011;11873;49.300;8.920;2022-10-16T07:04:45;2.60;;;1.77;;
23400;SDS011;11873;49.300;8.920;2022-10-16T07:09:45;2.37;;;1.77;;
23400;SDS011;11873;49.300;8.920;2022-10-16T07:14:45;2.27;;;2.00;;
23400;SDS011;11873;49.300;8.920;2022-10-16T07:19:46;1.70;;;1.60;;
23400;SDS011;11873;49.300;8.920;2022-10-16T07:24:46;3.93;;;1.90;;
23400;SDS011;11873;49.300;8.920;2022-10-16T07:29:46;4.20;;;1.80;;
23400;SDS011;11873;49.300;8.920;2022-10-16T07:34:46;1.77;;;1.67;;
23400;SDS011;11873;49.300;8.920;2022-10-16T07:39:46;1.57;;;1.27;;
23400;SDS011;11873;49.300;8.920;2022-10-16T07:44:47;1.67;;;1.40;;
23400;SDS011;11873;49.300;8.920;2022-10-16T07:49:47;3.83;;;1.53;;
23400;SDS011;11873;49.300;8.920;2022-10-16T07:54:47;1.97;;;1.30;;
23400;SDS011;11873;49.300;8.920;2022-10-16T07:59:47;1.30;;;1.20;;
23400;SDS011;11873;49.300;8.920;2022-10-16T08:04:47;3.83;;;1.40;;
23400;SDS011;11873;49.300;8.920;2022-10-16T08:09:50;1.30;;;1.30;;
23400;SDS011;11873;49.300;8.920;2022-10-16T08:14:50;1.30;;;1.20;;
23400;SDS011;11873;49.300;8.920;2022-10-16T08:19:51;1.00;;;1.00;;
23400;SDS011;11873;49.300;8.920;2022-10-16T08:24:51;1.67;;;1.17;;
23400;SDS011;11873;49.300;8.920;2022-10-16T08:29:51;1.63;;;1.20;;
23400;SDS011;11873;49.300;8.920;2022-10-16T08:34:51;2.20;;;1.27;;
23400;SDS011;11873;49.300;8.920;2022-10-16T08:39:51;1.33;;;1.27;;
23400;SDS011;11873;49.300;8.920;2022-10-16T08:45:08;1.47;;;1.30;;
23400;SDS011;11873;49.300;8.920;2022-10-16T08:50:10;1.30;;;1.20;;
23400;SDS011;11873;49.300;8.920;2022-10-16T08:55:25;1.97;;;1.10;;
23400;SDS011;11873;49.300;8.920;2022-10-16T09:00:28;2.67;;;1.20;;
23400;SDS011;11873;49.300;8.920;2022-10-16T09:10:32;1.77;;;1.00;;
23400;SDS011;11873;49.300;8.920;2022-10-16T09:15:35;1.67;;;1.20;;
23400;SDS011;11873;49.300;8.920;2022-10-16T09:20:49;1.00;;;1.00;;
23400;SDS011;11873;49.300;8.920;2022-10-16T09:25:50;1.00;;;1.00;;
23400;SDS011;11873;49.300;8.920;2022-10-16T09:30:50;1.27;;;1.17;;
23400;SDS011;11873;49.300;8.920;2022-10-16T09:35:51;1.40;;;1.17;;
23400;SDS011;11873;49.300;8.920;2022-10-16T09:40:52;1.20;;;1.10;;
23400;SDS011;11873;49.300;8.920;2022-10-16T09:46:00;3.13;;;1.40;;
23400;SDS011;11873;49.300;8.920;2022-10-16T09:51:01;1.23;;;1.13;;
23400;SDS011;11873;49.300;8.920;2022-10-16T09:56:02;1.10;;;1.10;;
23400;SDS011;11873;49.300;8.920;2022-10-16T10:01:02;0.93;;;0.93;;
23400;SDS011;11873;49.300;8.920;2022-10-16T10:06:13;1.40;;;1.30;;
23400;SDS011;11873;49.300;8.920;2022-10-16T10:11:14;1.47;;;1.37;;
23400;SDS011;11873;49.300;8.920;2022-10-16T10:16:23;1.37;;;1.20;;
23400;SDS011;11873;49.300;8.920;2022-10-16T10:21:23;3.70;;;1.13;;
23400;SDS011;11873;49.300;8.920;2022-10-16T10:26:24;1.87;;;1.30;;
23400;SDS011;11873;49.300;8.920;2022-10-16T10:31:29;2.30;;;1.53;;
23400;SDS011;11873;49.300;8.920;2022-10-16T10:36:34;1.30;;;1.23;;
23400;SDS011;11873;49.300;8.920;2022-10-16T10:46:45;1.37;;;1.27;;
23400;SDS011;11873;49.300;8.920;2022-10-16T10:57:14;2.37;;;1.50;;
23400;SDS011;11873;49.300;8.920;2022-10-16T11:07:50;2.80;;;1.10;;
23400;SDS011;11873;49.300;8.920;2022-10-16T11:12:54;1.23;;;1.20;;
23400;SDS011;11873;49.300;8.920;2022-10-16T11:18:16;1.60;;;1.30;;
23400;SDS011;11873;49.300;8.920;2022-10-16T11:23:22;1.20;;;1.20;;
23400;SDS011;11873;49.300;8.920;2022-10-16T11:28:24;1.23;;;1.20;;
23400;SDS011;11873;49.300;8.920;2022-10-16T11:33:31;2.17;;;1.30;;
23400;SDS011;11873;49.300;8.920;2022-10-16T11:38:34;1.07;;;1.07;;
23400;SDS011;11873;49.300;8.920;2022-10-16T11:43:41;1.40;;;1.30;;
23400;SDS011;11873;49.300;8.920;2022-10-16T11:48:48;1.00;;;1.00;;
23400;SDS011;11873;49.300;8.920;2022-10-16T11:53:55;1.60;;;1.50;;
23400;SDS011;11873;49.300;8.920;2022-10-16T11:59:01;2.30;;;1.40;;
23400;SDS011;11873;49.300;8.920;2022-10-16T12:14:20;1.40;;;1.30;;
23400;SDS011;11873;49.300;8.920;2022-10-16T12:19:21;2.17;;;1.07;;
23400;SDS011;11873;49.300;8.920;2022-10-16T12:24:38;1.63;;;0.90;;
23400;SDS011;11873;49.300;8.920;2022-10-16T12:29:39;1.50;;;1.13;;
23400;SDS011;11873;49.300;8.920;2022-10-16T12:34:41;1.00;;;1.00;;
23400;SDS011;11873;49.300;8.920;2022-10-16T12:39:42;1.50;;;1.40;;
23400;SDS011;11873;49.300;8.920;2022-10-16T12:44:43;2.97;;;1.07;;
23400;SDS011;11873;49.300;8.920;2022-10-16T12:49:48;1.73;;;1.27;;
23400;SDS011;11873;49.300;8.920;2022-10-16T12:54:48;1.07;;;1.00;;
23400;SDS011;11873;49.300;8.920;2022-10-16T13:09:53;1.30;;;1.20;;
23400;SDS011;11873;49.300;8.920;2022-10-16T13:15:01;1.40;;;1.30;;
23400;SDS011;11873;49.300;8.920;2022-10-16T13:25:23;1.30;;;1.20;;
23400;SDS011;11873;49.300;8.920;2022-10-16T13:30:32;1.30;;;1.20;;
23400;SDS011;11873;49.300;8.920;2022-10-16T13:35:34;5.13;;;2.50;;
23400;SDS011;11873;49.300;8.920;2022-10-16T13:40:35;5.97;;;3.53;;
23400;SDS011;11873;49.300;8.920;2022-10-16T13:45:35;4.23;;;3.07;;
23400;SDS011;11873;49.300;8.920;2022-10-16T13:50:35;1.57;;;1.47;;
23400;SDS011;11873;49.300;8.920;2022-10-16T13:55:35;6.03;;;1.20;;
23400;SDS011;11873;49.300;8.920;2022-10-16T14:00:35;2.30;;;1.37;;
23400;SDS011;11873;49.300;8.920;2022-10-16T14:05:36;5.97;;;1.67;;
23400;SDS011;11873;49.300;8.920;2022-10-16T14:10:36;2.70;;;1.70;;
23400;SDS011;11873;49.300;8.920;2022-10-16T14:15:36;3.87;;;1.77;;
23400;SDS011;11873;49.300;8.920;2022-10-16T14:20:37;3.43;;;3.13;;
23400;SDS011;11873;49.300;8.920;2022-10-16T14:25:37;2.20;;;2.10;;
23400;SDS011;11873;49.300;8.920;2022-10-16T14:30:37;2.47;;;1.93;;
23400;SDS011;11873;49.300;8.920;2022-10-16T14:35:59;3.67;;;1.53;;
23400;SDS011;11873;49.300;8.920;2022-10-16T14:40:59;5.03;;;1.90;;
23400;SDS011;11873;49.300;8.920;2022-10-16T14:46:00;3.00;;;1.40;;
23400;SDS011;11873;49.300;8.920;2022-10-16T14:51:01;2.00;;;1.80;;
23400;SDS011;11873;49.300;8.920;2022-10-16T14:56:06;2.53;;;1.30;;
23400;SDS011;11873;49.300;8.920;2022-10-16T15:01:07;4.97;;;4.57;;
23400;SDS011;11873;49.300;8.920;2022-10-16T15:06:16;3.67;;;2.63;;
23400;SDS011;11873;49.300;8.920;2022-10-16T15:11:17;3.83;;;2.80;;
23400;SDS011;11873;49.300;8.920;2022-10-16T15:16:17;2.60;;;2.40;;
23400;SDS011;11873;49.300;8.920;2022-10-16T15:21:25;4.13;;;3.03;;
23400;SDS011;11873;49.300;8.920;2022-10-16T15:26:26;2.40;;;1.73;;
23400;SDS011;11873;49.300;8.920;2022-10-16T15:31:27;8.27;;;2.60;;
23400;SDS011;11873;49.300;8.920;2022-10-16T15:36:27;6.80;;;4.67;;
23400;SDS011;11873;49.300;8.920;2022-10-16T15:41:28;4.20;;;2.50;;
23400;SDS011;11873;49.300;8.920;2022-10-16T15:46:28;1.90;;;1.80;;
23400;SDS011;11873;49.300;8.920;2022-10-16T15:51:28;2.30;;;2.10;;
23400;SDS011;11873;49.300;8.920;2022-10-16T15:56:28;3.80;;;1.50;;
23400;SDS011;11873;49.300;8.920;2022-10-16T16:01:31;9.07;;;5.50;;
23400;SDS011;11873;49.300;8.920;2022-10-16T16:06:32;3.03;;;1.90;;
23400;SDS011;11873;49.300;8.920;2022-10-16T16:11:32;1.77;;;1.67;;
23400;SDS011;11873;49.300;8.920;2022-10-16T16:16:32;5.70;;;2.50;;
23400;SDS011;11873;49.300;8.920;2022-10-16T16:21:33;2.00;;;1.90;;
23400;SDS011;11873;49.300;8.920;2022-10-16T16:26:33;3.20;;;2.67;;
23400;SDS011;11873;49.300;8.920;2022-10-16T16:31:34;3.47;;;2.33;;
23400;SDS011;11873;49.300;8.920;2022-10-16T16:36:35;9.00;;;5.43;;
23400;SDS011;11873;49.300;8.920;2022-10-16T16:41:35;8.27;;;5.07;;
23400;SDS011;11873;49.300;8.920;2022-10-16T16:46:35;8.40;;;4.77;;
23400;SDS011;11873;49.300;8.920;2022-10-16T16:51:36;12.47;;;5.10;;
23400;SDS011;11873;49.300;8.920;2022-10-16T16:56:36;3.33;;;3.03;;
23400;SDS011;11873;49.300;8.920;2022-10-16T17:01:36;4.03;;;2.80;;
23400;SDS011;11873;49.300;8.920;2022-10-16T17:06:36;3.93;;;2.93;;
23400;SDS011;11873;49.300;8.920;2022-10-16T17:11:37;4.73;;;3.73;;
23400;SDS011;11873;49.300;8.920;2022-10-16T17:16:37;17.03;;;8.00;;
23400;SDS011;11873;49.300;8.920;2022-10-16T17:21:38;8.63;;;6.20;;
23400;SDS011;11873;49.300;8.920;2022-10-16T17:26:41;10.93;;;5.50;;
23400;SDS011;11873;49.300;8.920;2022-10-16T17:31:41;8.20;;;4.77;;
23400;SDS011;11873;49.300;8.920;2022-10-16T17:36:41;5.75;;;4.45;;
23400;SDS011;11873;49.300;8.920;2022-10-16T17:41:41;5.50;;;4.20;;
23400;SDS011;11873;49.300;8.920;2022-10-16T17:46:42;4.87;;;3.53;;
23400;SDS011;11873;49.300;8.920;2022-10-16T17:51:42;9.17;;;3.87;;
23400;SDS011;11873;49.300;8.920;2022-10-16T17:56:42;5.00;;;4.47;;
23400;SDS011;11873;49.300;8.920;2022-10-16T18:01:42;4.57;;;3.80;;
23400;SDS011;11873;49.300;8.920;2022-10-16T18:06:43;5.17;;;4.33;;
23400;SDS011;11873;49.300;8.920;2022-10-16T18:11:44;6.87;;;4.23;;
23400;SDS011;11873;49.300;8.920;2022-10-16T18:16:44;20.20;;;17.30;;
23400;SDS011;11873;49.300;8.920;2022-10-16T18:21:44;9.80;;;8.80;;
23400;SDS011;11873;49.300;8.920;2022-10-16T18:26:45;9.83;;;7.20;;
23400;SDS011;11873;49.300;8.920;2022-10-16T18:31:45;20.43;;;10.57;;
23400;SDS011;11873;49.300;8.920;2022-10-16T18:36:45;10.37;;;7.60;;
23400;SDS011;11873;49.300;8.920;2022-10-16T18:41:45;5.90;;;4.53;;
23400;SDS011;11873;49.300;8.920;2022-10-16T18:46:46;7.40;;;4.70;;
23400;SDS011;11873;49.300;8.920;2022-10-16T18:51:46;6.23;;;4.53;;
23400;SDS011;11873;49.300;8.920;2022-10-16T18:56:46;6.50;;;4.83;;
23400;SDS011;11873;49.300;8.920;2022-10-16T19:01:47;7.78;;;5.68;;
23400;SDS011;11873;49.300;8.920;2022-10-16T19:06:48;5.33;;;3.87;;
23400;SDS011;11873;49.300;8.920;2022-10-16T19:11:49;8.17;;;4.13;;
23400;SDS011;11873;49.300;8.920;2022-10-16T19:16:49;3.50;;;3.20;;
23400;SDS011;11873;49.300;8.920;2022-10-16T19:21:50;6.15;;;3.42;;
23400;SDS011;11873;49.300;8.920;2022-10-16T19:26:50;9.67;;;6.50;;
23400;SDS011;11873;49.300;8.920;2022-10-16T19:31:50;11.50;;;7.70;;
23400;SDS011;11873;49.300;8.920;2022-10-16T19:36:51;5.27;;;4.77;;
23400;SDS011;11873;49.300;8.920;2022-10-16T19:41:51;5.77;;;3.90;;
23400;SDS011;11873;49.300;8.920;2022-10-16T19:46:52;10.63;;;5.50;;
23400;SDS011;11873;49.300;8.920;2022-10-16T19:51:52;5.03;;;4.10;;
23400;SDS011;11873;49.300;8.920;2022-10-16T19:56:52;6.77;;;5.10;;
23400;SDS011;11873;49.300;8.920;2022-10-16T20:01:52;9.07;;;6.27;;
23400;SDS011;11873;49.300;8.920;2022-10-16T20:06:52;5.27;;;3.80;;
23400;SDS011;11873;49.300;8.920;2022-10-16T20:11:52;6.27;;;3.57;;
23400;SDS011;11873;49.300;8.920;2022-10-16T20:16:53;9.00;;;5.43;;
23400;SDS011;11873;49.300;8.920;2022-10-16T20:21:53;11.37;;;6.50;;
23400;SDS011;11873;49.300;8.920;2022-10-16T20:26:54;9.50;;;5.73;;
23400;SDS011;11873;49.300;8.920;2022-10-16T20:31:54;5.67;;;4.00;;
23400;SDS011;11873;49.300;8.920;2022-10-16T20:36:54;6.67;;;4.90;;
23400;SDS011;11873;49.300;8.920;2022-10-16T20:41:54;6.83;;;5.90;;
23400;SDS011;11873;49.300;8.920;2022-10-16T20:46:54;9.80;;;4.50;;
23400;SDS011;11873;49.300;8.920;2022-10-16T20:51:55;6.80;;;3.70;;
23400;SDS011;11873;49.300;8.920;2022-10-16T20:56:56;7.10;;;3.40;;
23400;SDS011;11873;49.300;8.920;2022-10-16T21:01:56;5.10;;;3.47;;
23400;SDS011;11873;49.300;8.920;2022-10-16T21:06:56;7.37;;;2.77;;
23400;SDS011;11873;49.300;8.920;2022-10-16T21:11:56;4.33;;;2.97;;
23400;SDS011;11873;49.300;8.920;2022-10-16T21:16:56;4.47;;;3.40;;
23400;SDS011;11873;49.300;8.920;2022-10-16T21:21:57;3.00;;;2.73;;
23400;SDS011;11873;49.300;8.920;2022-10-16T21:26:57;3.67;;;2.80;;
23400;SDS011;11873;49.300;8.920;2022-10-16T21:31:57;3.87;;;3.40;;
23400;SDS011;11873;49.300;8.920;2022-10-16T21:36:58;5.83;;;3.03;;
23400;SDS011;11873;49.300;8.920;2022-10-16T21:41:58;4.57;;;2.10;;
23400;SDS011;11873;49.300;8.920;2022-10-16T21:46:58;4.27;;;2.50;;
23400;SDS011;11873;49.300;8.920;2022-10-16T21:51:58;2.83;;;2.40;;
23400;SDS011;11873;49.300;8.920;2022-10-16T21:56:58;2.90;;;2.47;;
23400;SDS011;11873;49.300;8.920;2022-10-16T22:01:59;5.47;;;2.40;;
23400;SDS011;11873;49.300;8.920;2022-10-16T22:06:59;3.17;;;2.10;;
23400;SDS011;11873;49.300;8.920;2022-10-16T22:11:59;2.10;;;1.90;;
23400;SDS011;11873;49.300;8.920;2022-10-16T22:16:59;6.27;;;3.77;;
23400;SDS011;11873;49.300;8.920;2022-10-16T22:21:59;6.73;;;3.77;;
23400;SDS011;11873;49.300;8.920;2022-10-16T22:27:00;6.43;;;3.40;;
23400;SDS011;11873;49.300;8.920;2022-10-16T22:32:00;7.30;;;3.50;;
23400;SDS011;11873;49.300;8.920;2022-10-16T22:37:00;4.23;;;3.07;;
23400;SDS011;11873;49.300;8.920;2022-10-16T22:42:00;7.57;;;3.90;;
23400;SDS011;11873;49.300;8.920;2022-10-16T22:47:00;4.63;;;3.50;;
23400;SDS011;11873;49.300;8.920;2022-10-16T22:52:00;6.17;;;3.03;;
23400;SDS011;11873;49.300;8.920;2022-10-16T22:57:01;3.77;;;2.37;;
23400;SDS011;11873;49.300;8.920;2022-10-16T23:02:01;7.30;;;2.93;;
23400;SDS011;11873;49.300;8.920;2022-10-16T23:07:01;9.17;;;4.20;;
23400;SDS011;11873;49.300;8.920;2022-10-16T23:12:01;9.50;;;4.03;;
23400;SDS011;11873;49.300;8.920;2022-10-16T23:17:01;6.90;;;3.40;;
23400;SDS011;11873;49.300;8.920;2022-10-16T23:22:02;3.70;;;3.30;;
23400;SDS011;11873;49.300;8.920;2022-10-16T23:27:02;7.17;;;3.03;;
23400;SDS011;11873;49.300;8.920;2022-10-16T23:32:02;5.17;;;3.60;;
23400;SDS011;11873;49.300;8.920;2022-10-16T23:37:02;5.77;;;3.47;;
23400;SDS011;11873;49.300;8.920;2022-10-16T23:42:02;6.37;;;3.67;;
23400;SDS011;11873;49.300;8.920;2022-10-16T23:47:03;12.30;;;3.87;;
23400;SDS011;11873;49.300;8.920;2022-10-16T23:52:03;5.40;;;3.80;;
23400;SDS011;11873;49.300;8.920;2022-10-16T23:57:03;4.27;;;3.03;;
